Time;durP1;ratioP1;P1;durP2;ratioP2;P2;SDS_P1;SDS_P2;PMS_P1;PMS_P2;Temp;Humidity;BMP_temperature;BMP_pressure;BME280_temperature;BME280_humidity;BME280_pressure;Samples;Min_cycle;Max_cycle;Signal;HPM_P1;HPM_P2
2020/12/08 00:00:43;;;;;;;;;;;;;;;-0.40;100.00;97737.94;5049956;28;19925;-80
2020/12/08 00:03:08;;;;;;;;;;;;;;;-0.45;100.00;97731.22;5053632;28;19948;-80
2020/12/08 00:05:33;;;;;;;;;;;;;;;-0.44;100.00;97735.41;5051999;28;20008;-80
2020/12/08 00:07:59;;;;;;;;;;;;;;;-0.31;100.00;97735.31;5045473;28;19920;-79
2020/12/08 00:10:24;;;;;;;;;;;;;;;-0.40;99.90;97737.94;5045871;28;19959;-80
2020/12/08 00:12:50;;;;;;;;;;;;;;;-0.48;99.83;97738.84;5049141;28;19921;-80
2020/12/08 00:15:15;;;;;;;;;;;;;;;-0.57;100.00;97741.44;5053923;28;19921;-80
2020/12/08 00:17:41;;;;;;;;;;;;;;;-0.63;100.00;97741.50;5029456;28;20305;-80
2020/12/08 00:20:07;;;;;;;;;;;;;;;-0.74;100.00;97738.19;5046608;28;19919;-80
2020/12/08 00:22:32;;;;;;;;;;;;;;;-0.49;100.00;97734.63;5050974;28;20016;-80
2020/12/08 00:24:58;;;;;;;;;;;;;;;-0.34;100.00;97735.34;5049667;28;19925;-79
2020/12/08 00:27:23;;;;;;;;;;;;;;;-0.19;99.17;97736.91;5052904;28;19921;-79
2020/12/08 00:29:48;;;;;;;;;;;;;;;-0.35;100.00;97741.25;5054009;28;20459;-80
2020/12/08 00:32:14;;;;;;;;;;;;;;;-0.45;99.91;97745.56;5054459;28;19988;-80
2020/12/08 00:34:39;;;;;;;;;;;;;;;-0.55;100.00;97742.25;5046212;28;19917;-80
2020/12/08 00:37:05;;;;;;;;;;;;;;;-0.57;100.00;97740.59;5051678;28;20004;-80
2020/12/08 00:39:30;;;;;;;;;;;;;;;-0.58;100.00;97742.28;5046461;28;20276;-80
2020/12/08 00:41:56;;;;;;;;;;;;;;;-0.53;100.00;97740.56;5056732;28;20432;-80
2020/12/08 00:44:21;;;;;;;;;;;;;;;-0.60;100.00;97741.44;5029674;28;20023;-80
2020/12/08 00:46:49;;;;;;;;;;;;;;;-0.45;100.00;97736.28;5046331;28;19917;-80
2020/12/08 00:49:15;;;;;;;;;;;;;;;-0.40;100.00;97731.19;5045151;28;19917;-80
2020/12/08 00:51:41;;;;;;;;;;;;;;;-0.43;100.00;97729.53;5053878;28;19917;-79
2020/12/08 00:54:06;;;;;;;;;;;;;;;-0.58;100.00;97733.88;5032079;28;19921;-80
2020/12/08 00:56:32;;;;;;;;;;;;;;;-0.48;100.00;97733.78;5030227;28;19921;-80
2020/12/08 00:58:57;;;;;;;;;;;;;;;-0.44;100.00;97732.88;5053333;28;19943;-80
2020/12/08 01:01:23;;;;;;;;;;;;;;;-0.36;100.00;97734.53;5046235;28;19921;-79
2020/12/08 01:03:48;;;;;;;;;;;;;;;-0.35;100.00;97736.19;5050007;28;19925;-80
2020/12/08 01:06:13;;;;;;;;;;;;;;;-0.24;100.00;97739.47;5037313;28;20589;-80
2020/12/08 01:08:39;;;;;;;;;;;;;;;-0.49;100.00;97733.78;5048843;28;19922;-80
2020/12/08 01:11:04;;;;;;;;;;;;;;;-0.31;100.00;97738.69;5038478;28;20285;-80
2020/12/08 01:13:37;;;;;;;;;;;;;;;-0.28;100.00;97737.81;5047711;28;19917;-80
2020/12/08 01:16:02;;;;;;;;;;;;;;;-0.36;100.00;97735.38;5034067;28;19925;-80
2020/12/08 01:18:28;;;;;;;;;;;;;;;-0.39;100.00;97729.47;5050436;28;19933;-80
2020/12/08 01:20:55;;;;;;;;;;;;;;;-0.35;100.00;97736.19;5049842;28;19956;-79
2020/12/08 01:23:20;;;;;;;;;;;;;;;-0.32;100.00;97731.09;5050994;28;19924;-80
2020/12/08 01:25:46;;;;;;;;;;;;;;;-0.46;100.00;97734.63;5048040;28;19980;-79
2020/12/08 01:28:11;;;;;;;;;;;;;;;-0.39;100.00;97734.53;5050526;28;19921;-80
2020/12/08 01:30:37;;;;;;;;;;;;;;;-0.42;100.00;97731.19;5060419;28;19913;-80
2020/12/08 01:33:02;;;;;;;;;;;;;;;-0.37;100.00;97730.31;5052367;28;19917;-80
2020/12/08 01:35:27;;;;;;;;;;;;;;;-0.31;100.00;97732.81;5044652;28;20926;-80
2020/12/08 01:37:54;;;;;;;;;;;;;;;-0.40;100.00;97731.19;5051327;28;20370;-79
2020/12/08 01:40:19;;;;;;;;;;;;;;;-0.23;100.00;97731.00;5048844;28;19924;-80
2020/12/08 01:42:45;;;;;;;;;;;;;;;-0.16;100.00;97727.59;5057351;28;19925;-80
2020/12/08 01:45:10;;;;;;;;;;;;;;;-0.25;100.00;97732.72;5049663;28;19916;-80
2020/12/08 01:47:35;;;;;;;;;;;;;;;-0.10;100.00;97732.59;5028114;28;19941;-80
2020/12/08 01:50:01;;;;;;;;;;;;;;;-0.25;100.00;97727.66;5047848;28;19966;-80
2020/12/08 01:52:26;;;;;;;;;;;;;;;-0.30;100.00;97731.94;5042781;28;19925;-80
2020/12/08 01:54:53;;;;;;;;;;;;;;;-0.38;100.00;97728.66;5050214;28;20007;-80
2020/12/08 01:57:18;;;;;;;;;;;;;;;-0.25;100.00;97727.66;5043574;28;20039;-80
2020/12/08 01:59:43;;;;;;;;;;;;;;;-0.24;100.00;97726.81;5046981;28;19967;-80
2020/12/08 02:02:09;;;;;;;;;;;;;;;-0.18;100.00;97734.38;5056452;28;19925;-80
2020/12/08 02:04:35;;;;;;;;;;;;;;;-0.24;100.00;97734.41;5049924;28;20290;-80
2020/12/08 02:07:00;;;;;;;;;;;;;;;-0.22;100.00;97735.25;5049222;28;19922;-81
2020/12/08 02:09:25;;;;;;;;;;;;;;;-0.11;100.00;97732.63;5045378;28;19968;-80
2020/12/08 02:11:51;;;;;;;;;;;;;;;-0.23;100.00;97733.56;5047992;28;19917;-80
2020/12/08 02:14:16;;;;;;;;;;;;;;;-0.14;100.00;97741.06;5057585;28;19920;-80
2020/12/08 02:16:42;;;;;;;;;;;;;;;-0.10;100.00;97737.66;5052938;28;19935;-80
2020/12/08 02:19:07;;;;;;;;;;;;;;;-0.22;100.00;97733.53;5055898;28;19920;-80
2020/12/08 02:21:33;;;;;;;;;;;;;;;-0.31;100.00;97742.91;5044886;28;19917;-80
2020/12/08 02:23:59;;;;;;;;;;;;;;;-0.21;100.00;97741.97;5054909;28;19929;-80
2020/12/08 02:26:24;;;;;;;;;;;;;;;-0.20;100.00;97746.19;5049941;28;19948;-80
2020/12/08 02:28:50;;;;;;;;;;;;;;;-0.25;100.00;97743.69;5050551;28;20035;-79
2020/12/08 02:31:15;;;;;;;;;;;;;;;-0.20;100.00;97738.59;5046388;28;20429;-80
2020/12/08 02:33:41;;;;;;;;;;;;;;;-0.17;100.00;97735.19;5056714;28;19925;-80
2020/12/08 02:36:06;;;;;;;;;;;;;;;-0.15;100.00;97744.44;5057623;28;19920;-80
2020/12/08 02:38:31;;;;;;;;;;;;;;;-0.16;100.00;97739.38;5046266;28;19925;-80
2020/12/08 02:40:57;;;;;;;;;;;;;;;-0.08;100.00;97737.63;5054417;28;19949;-80
2020/12/08 02:43:22;;;;;;;;;;;;;;;-0.03;100.00;97734.19;5050760;28;19917;-80
2020/12/08 02:45:48;;;;;;;;;;;;;;;-0.10;100.00;97739.34;5044709;28;19920;-80
2020/12/08 02:48:13;;;;;;;;;;;;;;;-0.02;100.00;97735.88;5049765;28;19963;-80
2020/12/08 02:50:39;;;;;;;;;;;;;;;0.05;100.00;97735.84;5048314;28;19917;-79
2020/12/08 02:53:04;;;;;;;;;;;;;;;-0.06;100.00;97734.22;5044809;28;19917;-79
2020/12/08 02:55:30;;;;;;;;;;;;;;;0.13;100.00;97734.03;5046639;28;19967;-79
2020/12/08 02:57:55;;;;;;;;;;;;;;;0.24;100.00;97739.00;5057681;28;19920;-79
2020/12/08 03:00:20;;;;;;;;;;;;;;;0.03;100.00;97732.47;5050226;28;19985;-79
2020/12/08 03:02:46;;;;;;;;;;;;;;;0.25;100.00;97728.00;5052153;28;19921;-80
2020/12/08 03:05:11;;;;;;;;;;;;;;;0.28;100.00;97726.28;5053662;28;19932;-79
2020/12/08 03:07:40;;;;;;;;;;;;;;;0.44;100.00;97723.59;5046067;28;19917;-79
2020/12/08 03:10:08;;;;;;;;;;;;;;;0.44;100.00;97721.88;5050787;28;19952;-80
2020/12/08 03:12:34;;;;;;;;;;;;;;;0.51;100.00;97727.72;5050916;28;19920;-80
2020/12/08 03:14:59;;;;;;;;;;;;;;;0.50;100.00;97728.56;5048027;28;19921;-80
2020/12/08 03:17:25;;;;;;;;;;;;;;;0.51;100.00;97726.00;5036461;28;19931;-80
2020/12/08 03:19:50;;;;;;;;;;;;;;;0.38;100.00;97732.91;5050450;28;19920;-80
2020/12/08 03:22:16;;;;;;;;;;;;;;;0.50;100.00;97731.09;5051828;28;19969;-80
2020/12/08 03:24:41;;;;;;;;;;;;;;;0.60;100.00;97730.13;5047847;28;19984;-79
2020/12/08 03:27:06;;;;;;;;;;;;;;;0.38;100.00;97720.25;5047070;28;19920;-80
2020/12/08 03:29:32;;;;;;;;;;;;;;;0.60;100.00;97720.00;5033426;28;19917;-80
2020/12/08 03:31:57;;;;;;;;;;;;;;;0.51;100.00;97715.03;5050933;28;19944;-80
2020/12/08 03:34:22;;;;;;;;;;;;;;;0.58;100.00;97714.94;5056935;28;19921;-80
2020/12/08 03:36:48;;;;;;;;;;;;;;;0.64;100.00;97721.63;5050261;28;20009;-80
2020/12/08 03:39:16;;;;;;;;;;;;;;;0.57;100.00;97709.88;5055234;28;19917;-80
2020/12/08 03:41:41;;;;;;;;;;;;;;;0.62;100.00;97705.63;5049534;28;19982;-81
2020/12/08 03:44:07;;;;;;;;;;;;;;;0.71;100.00;97713.09;5056562;28;19914;-80
2020/12/08 03:46:32;;;;;;;;;;;;;;;0.65;100.00;97713.16;5055854;28;19920;-80
2020/12/08 03:48:57;;;;;;;;;;;;;;;0.70;100.00;97708.03;5046575;28;19917;-80
2020/12/08 03:51:23;;;;;;;;;;;;;;;0.66;100.00;97714.81;5057449;28;19931;-80
2020/12/08 03:53:48;;;;;;;;;;;;;;;0.57;100.00;97714.94;5049700;28;19991;-80
2020/12/08 03:56:14;;;;;;;;;;;;;;;0.67;100.00;97710.63;5047845;28;20318;-80
2020/12/08 03:58:40;;;;;;;;;;;;;;;0.73;100.00;97707.97;5051251;28;19921;-80
2020/12/08 04:01:05;;;;;;;;;;;;;;;0.73;100.00;97720.66;5050255;28;19963;-80
2020/12/08 04:03:31;;;;;;;;;;;;;;;0.76;100.00;97710.50;5052622;28;19984;-80
2020/12/08 04:06:00;;;;;;;;;;;;;;;0.79;100.00;97716.34;5057222;28;19927;-80
2020/12/08 04:08:26;;;;;;;;;;;;;;;0.73;100.00;97720.66;5052335;28;19988;-81
2020/12/08 04:10:51;;;;;;;;;;;;;;;0.69;100.00;97719.88;5054228;28;19925;-81
2020/12/08 04:13:16;;;;;;;;;;;;;;;0.79;100.00;97715.50;5051873;28;19917;-80
2020/12/08 04:15:41;;;;;;;;;;;;;;;0.73;100.00;97713.91;5046057;28;19924;-80
2020/12/08 04:18:08;;;;;;;;;;;;;;;0.59;100.00;97724.22;5051568;28;19921;-81
2020/12/08 04:20:33;;;;;;;;;;;;;;;0.64;100.00;97721.63;5046057;28;19917;-81
2020/12/08 04:22:58;;;;;;;;;;;;;;;0.76;100.00;97726.53;5052446;28;19932;-81
2020/12/08 04:25:24;;;;;;;;;;;;;;;0.74;100.00;97714.75;5053478;28;19916;-81
2020/12/08 04:27:49;;;;;;;;;;;;;;;0.73;100.00;97716.44;5031645;28;19931;-80
2020/12/08 04:30:14;;;;;;;;;;;;;;;0.81;100.00;97719.69;5041379;28;20454;-81
2020/12/08 04:32:40;;;;;;;;;;;;;;;0.82;100.00;97725.59;5032565;28;19928;-81
2020/12/08 04:35:05;;;;;;;;;;;;;;;0.86;100.00;97722.16;5030134;28;19929;-80
2020/12/08 04:37:31;;;;;;;;;;;;;;;0.88;100.00;97724.69;5043175;28;19925;-80
2020/12/08 04:39:56;;;;;;;;;;;;;;;0.98;100.00;97722.00;5050101;28;20030;-81
2020/12/08 04:42:21;;;;;;;;;;;;;;;0.97;100.00;97727.94;5054545;28;19924;-81
2020/12/08 04:44:47;;;;;;;;;;;;;;;1.06;100.00;97726.97;5043226;28;19943;-81
2020/12/08 04:47:15;;;;;;;;;;;;;;;1.01;100.00;97731.28;5052026;28;19935;-81
2020/12/08 04:49:41;;;;;;;;;;;;;;;0.95;100.00;97726.28;5041228;28;19925;-81
2020/12/08 04:52:06;;;;;;;;;;;;;;;1.01;100.00;97731.28;5045234;28;19924;-82
2020/12/08 04:54:31;;;;;;;;;;;;;;;1.01;100.00;97728.72;5036600;28;19923;-80
2020/12/08 04:56:57;;;;;;;;;;;;;;;1.04;100.00;97728.69;5040970;28;19929;-81
2020/12/08 04:59:23;;;;;;;;;;;;;;;1.07;100.00;97726.09;5043877;28;20145;-80
2020/12/08 05:01:49;;;;;;;;;;;;;;;1.02;100.00;97732.94;5050681;28;19921;-80
2020/12/08 05:04:36;;;;;;;;;;;;;;;1.07;100.00;97735.41;5037963;28;19916;-79
2020/12/08 05:10:03;;;;;;;;;;;;;;;1.04;100.00;97737.13;5028265;28;19917;-81
2020/12/08 05:12:29;;;;;;;;;;;;;;;1.02;100.00;97740.53;5034837;28;20024;-81
2020/12/08 05:14:54;;;;;;;;;;;;;;;1.07;100.00;97745.53;5045675;28;19917;-80
2020/12/08 05:17:20;;;;;;;;;;;;;;;0.92;100.00;97742.38;5044430;28;19925;-81
2020/12/08 05:19:45;;;;;;;;;;;;;;;0.98;100.00;97746.50;5027977;28;20405;-82
2020/12/08 05:22:11;;;;;;;;;;;;;;;0.96;100.00;97748.25;5041997;28;20015;-81
2020/12/08 05:24:36;;;;;;;;;;;;;;;0.97;100.00;97744.84;5030001;28;19967;-80
2020/12/08 05:27:05;;;;;;;;;;;;;;;0.88;100.00;97739.91;5040926;28;19925;-81
2020/12/08 05:29:31;;;;;;;;;;;;;;;1.02;100.00;97743.06;5044038;28;19913;-81
2020/12/08 05:31:57;;;;;;;;;;;;;;;1.01;100.00;97743.94;5052019;28;19932;-80
2020/12/08 05:34:23;;;;;;;;;;;;;;;1.00;100.00;97742.25;5035224;28;19912;-81
2020/12/08 05:36:49;;;;;;;;;;;;;;;1.00;100.00;97744.78;5048442;28;19932;-80
2020/12/08 05:39:22;;;;;;;;;;;;;;;0.95;100.00;97742.31;5034769;28;20390;-80
2020/12/08 05:41:48;;;;;;;;;;;;;;;0.96;100.00;97736.41;5025398;28;20011;-81
2020/12/08 05:44:18;;;;;;;;;;;;;;;1.03;100.00;97742.22;5042470;28;19967;-81
2020/12/08 05:46:43;;;;;;;;;;;;;;;1.01;100.00;97739.72;5031805;28;20007;-80
2020/12/08 05:49:12;;;;;;;;;;;;;;;1.04;100.00;97743.88;5046751;28;19984;-81
2020/12/08 05:51:45;;;;;;;;;;;;;;;1.11;100.00;97748.00;5043330;28;19984;-80
2020/12/08 05:54:18;;;;;;;;;;;;;;;1.21;100.00;97744.50;5044481;28;20038;-81
2020/12/08 05:56:44;;;;;;;;;;;;;;;1.18;100.00;97749.59;5040184;28;19971;-81
2020/12/08 05:59:10;;;;;;;;;;;;;;;1.17;100.00;97747.09;5027035;28;19944;-81
2020/12/08 06:02:11;;;;;;;;;;;;;;;1.14;100.00;97747.97;5022801;28;19921;-80
2020/12/08 06:04:40;;;;;;;;;;;;;;;1.13;100.00;97746.28;5010125;28;19959;-79
2020/12/08 06:07:06;;;;;;;;;;;;;;;1.17;100.00;97744.56;5047627;28;19913;-80
2020/12/08 06:09:33;;;;;;;;;;;;;;;1.19;100.00;97751.28;5027511;28;20054;-81
2020/12/08 06:12:00;;;;;;;;;;;;;;;1.23;100.00;97747.84;5045254;28;19967;-80
2020/12/08 06:14:33;;;;;;;;;;;;;;;1.25;100.00;97756.28;5034547;28;19917;-80
2020/12/08 06:16:59;;;;;;;;;;;;;;;1.16;100.00;97748.78;5050842;28;19917;-81
2020/12/08 06:19:24;;;;;;;;;;;;;;;1.17;100.00;97759.78;5050896;28;19913;-79
2020/12/08 06:21:49;;;;;;;;;;;;;;;1.18;100.00;97757.19;5048981;28;19920;-81
2020/12/08 06:24:15;;;;;;;;;;;;;;;1.28;100.00;97762.13;5050960;28;19924;-81
2020/12/08 06:26:41;;;;;;;;;;;;;;;1.19;100.00;97763.13;5051997;28;20302;-82
2020/12/08 06:29:07;;;;;;;;;;;;;;;1.25;100.00;97761.34;5050660;28;19917;-81
2020/12/08 06:31:46;;;;;;;;;;;;;;;1.25;100.00;97763.88;5052350;28;19912;-80
2020/12/08 06:34:21;;;;;;;;;;;;;;;1.15;100.00;97766.56;5054512;28;19917;-81
2020/12/08 06:36:47;;;;;;;;;;;;;;;1.25;100.00;97776.56;5037734;28;20374;-82
2020/12/08 06:39:13;;;;;;;;;;;;;;;1.27;100.00;97773.97;5050327;28;19917;-80
2020/12/08 06:41:39;;;;;;;;;;;;;;;1.36;100.00;97773.00;5049504;28;19917;-82
2020/12/08 06:44:05;;;;;;;;;;;;;;;1.33;100.00;97773.91;5049832;28;19970;-81
2020/12/08 06:46:30;;;;;;;;;;;;;;;1.28;100.00;97773.13;5036428;28;19920;-81
2020/12/08 06:49:03;;;;;;;;;;;;;;;1.24;100.00;97774.88;5057564;28;19913;-80
2020/12/08 06:51:28;;;;;;;;;;;;;;;1.29;100.00;97782.41;5034426;28;19932;-80
2020/12/08 06:53:54;;;;;;;;;;;;;;;1.24;100.00;97777.41;5038396;28;19913;-81
2020/12/08 06:56:30;;;;;;;;;;;;;;;1.17;100.00;97780.06;5047478;28;19912;-80
2020/12/08 06:58:55;;;;;;;;;;;;;;;1.23;100.00;97780.81;5044837;28;19921;-79
2020/12/08 07:01:20;;;;;;;;;;;;;;;1.31;100.00;97790.00;5053592;28;19986;-80
2020/12/08 07:03:46;;;;;;;;;;;;;;;1.31;100.00;97785.75;5051172;28;20455;-81
2020/12/08 07:06:11;;;;;;;;;;;;;;;1.35;100.00;97784.88;5052679;28;19988;-80
2020/12/08 07:08:37;;;;;;;;;;;;;;;1.31;100.00;97792.53;5049056;28;19940;-80
2020/12/08 07:11:03;;;;;;;;;;;;;;;1.36;100.00;97784.00;5048685;28;19920;-79
2020/12/08 07:13:28;;;;;;;;;;;;;;;1.34;100.00;97795.03;5049184;28;19917;-80
2020/12/08 07:15:53;;;;;;;;;;;;;;;1.40;100.00;97789.88;5051751;28;19926;-79
2020/12/08 07:18:19;;;;;;;;;;;;;;;1.41;100.00;97791.53;5044503;28;19956;-79
2020/12/08 07:20:44;;;;;;;;;;;;;;;1.43;100.00;97792.34;5045384;28;20382;-80
2020/12/08 07:23:10;;;;;;;;;;;;;;;1.43;100.00;97789.81;5029946;28;19916;-79
2020/12/08 07:25:36;;;;;;;;;;;;;;;1.50;100.00;97791.41;5049128;28;19917;-78
2020/12/08 07:28:02;;;;;;;;;;;;;;;1.52;100.00;97794.75;5045528;28;19967;-79
2020/12/08 07:30:28;;;;;;;;;;;;;;;1.48;100.00;97795.66;5044445;28;19925;-78
2020/12/08 07:32:54;;;;;;;;;;;;;;;1.67;100.00;97794.53;5045424;28;19923;-78
2020/12/08 07:35:26;;;;;;;;;;;;;;;1.67;100.00;97797.06;5046720;28;20290;-79
2020/12/08 07:37:52;;;;;;;;;;;;;;;1.45;100.00;97803.31;5051828;28;20676;-78
2020/12/08 07:40:17;;;;;;;;;;;;;;;1.42;100.00;97799.13;5046497;28;19985;-78
2020/12/08 07:42:52;;;;;;;;;;;;;;;1.45;100.00;97803.31;5047571;28;21043;-78
2020/12/08 07:45:18;;;;;;;;;;;;;;;1.44;100.00;97802.47;5043035;28;19917;-79
2020/12/08 07:47:51;;;;;;;;;;;;;;;1.60;100.00;97800.56;5044888;28;19921;-78
2020/12/08 07:50:24;;;;;;;;;;;;;;;1.50;100.00;97798.19;5045669;28;19938;-79
2020/12/08 07:53:03;;;;;;;;;;;;;;;1.43;100.00;97805.03;5047495;28;20019;-78
2020/12/08 07:55:29;;;;;;;;;;;;;;;1.40;100.00;97800.03;5043715;28;19914;-78
2020/12/08 07:57:55;;;;;;;;;;;;;;;1.48;100.00;97793.13;5031546;28;19920;-78
2020/12/08 08:00:20;;;;;;;;;;;;;;;1.61;100.00;97799.69;5044762;28;19925;-79
2020/12/08 08:02:45;;;;;;;;;;;;;;;1.51;100.00;97798.16;5042132;28;19942;-78
2020/12/08 08:05:11;;;;;;;;;;;;;;;1.57;100.00;97803.13;5040975;28;20136;-79
2020/12/08 08:07:37;;;;;;;;;;;;;;;1.52;100.00;97799.00;5026374;28;19913;-78
2020/12/08 08:10:03;;;;;;;;;;;;;;;1.58;100.00;97809.88;5044139;28;19959;-79
2020/12/08 08:12:28;;;;;;;;;;;;;;;1.52;100.00;97809.13;5053082;28;19917;-79
2020/12/08 08:14:55;;;;;;;;;;;;;;;1.66;99.63;97817.38;5051835;28;19917;-78
2020/12/08 08:17:20;;;;;;;;;;;;;;;1.72;99.52;97821.53;5051345;28;19921;-79
2020/12/08 08:19:45;;;;;;;;;;;;;;;1.69;100.00;97812.28;5049976;28;19919;-79
2020/12/08 08:22:11;;;;;;;;;;;;;;;1.66;100.00;97807.22;5048297;28;20401;-79
2020/12/08 08:24:36;;;;;;;;;;;;;;;1.55;100.00;97804.88;5048319;28;19944;-79
2020/12/08 08:27:01;;;;;;;;;;;;;;;1.46;100.00;97810.09;5049936;28;20518;-78
2020/12/08 08:29:27;;;;;;;;;;;;;;;1.61;100.00;97804.75;5050026;28;20426;-79
2020/12/08 08:31:52;;;;;;;;;;;;;;;1.43;100.00;97805.03;5047170;28;20054;-79
2020/12/08 08:34:17;;;;;;;;;;;;;;;1.42;100.00;97816.88;5050143;28;19932;-79
2020/12/08 08:36:55;;;;;;;;;;;;;;;1.33;100.00;97818.72;5050398;28;19924;-79
2020/12/08 08:39:21;;;;;;;;;;;;;;;1.40;100.00;97815.25;5047241;28;19917;-79
2020/12/08 08:41:46;;;;;;;;;;;;;;;1.41;100.00;97811.81;5043515;28;19924;-79
2020/12/08 08:44:11;;;;;;;;;;;;;;;1.58;100.00;97820.03;5047531;28;19920;-79
2020/12/08 08:46:40;;;;;;;;;;;;;;;1.49;100.00;97820.19;5047342;28;20394;-79
2020/12/08 08:49:07;;;;;;;;;;;;;;;1.38;100.00;97817.78;5039476;28;19948;-79
2020/12/08 08:51:33;;;;;;;;;;;;;;;1.47;100.00;97826.97;5047072;28;19923;-79
2020/12/08 08:53:59;;;;;;;;;;;;;;;1.60;100.00;97825.09;5045798;28;19913;-79
2020/12/08 08:56:24;;;;;;;;;;;;;;;1.60;100.00;97823.41;5045006;28;19963;-79
2020/12/08 08:58:49;;;;;;;;;;;;;;;1.74;100.00;97829.97;5033490;28;19932;-78
2020/12/08 09:01:14;;;;;;;;;;;;;;;1.79;100.00;97820.56;5040707;28;19925;-78
2020/12/08 09:03:40;;;;;;;;;;;;;;;1.83;99.88;97829.81;5043210;28;19917;-78
2020/12/08 09:06:05;;;;;;;;;;;;;;;1.73;100.00;97833.34;5041155;28;20790;-78
2020/12/08 09:08:30;;;;;;;;;;;;;;;1.75;100.00;97834.16;5046949;28;19916;-78
2020/12/08 09:10:56;;;;;;;;;;;;;;;1.98;99.45;97834.63;5039369;28;20023;-79
2020/12/08 09:13:22;;;;;;;;;;;;;;;1.96;98.53;97831.31;5043177;28;19921;-79
2020/12/08 09:15:47;;;;;;;;;;;;;;;2.06;98.74;97837.06;5039680;28;20386;-78
2020/12/08 09:18:12;;;;;;;;;;;;;;;2.18;97.97;97841.09;5041222;28;19924;-78
2020/12/08 09:20:38;;;;;;;;;;;;;;;2.12;97.67;97841.19;5038396;28;20366;-79
2020/12/08 09:23:03;;;;;;;;;;;;;;;2.00;98.25;97848.13;5044383;28;19924;-79
2020/12/08 09:25:28;;;;;;;;;;;;;;;2.04;97.85;97837.06;5049137;28;19917;-79
2020/12/08 09:27:54;;;;;;;;;;;;;;;2.16;97.44;97847.91;5045873;28;19971;-79
2020/12/08 09:30:20;;;;;;;;;;;;;;;2.30;96.88;97840.88;5025088;28;19917;-79
2020/12/08 09:32:45;;;;;;;;;;;;;;;2.32;97.04;97839.13;5043684;28;19971;-79
2020/12/08 09:35:10;;;;;;;;;;;;;;;2.33;96.61;97838.28;5043403;28;20333;-81
2020/12/08 09:37:36;;;;;;;;;;;;;;;2.36;96.95;97839.94;5043643;28;19967;-80
2020/12/08 09:40:01;;;;;;;;;;;;;;;2.22;96.95;97847.78;5049084;28;19917;-81
2020/12/08 09:42:28;;;;;;;;;;;;;;;2.38;96.73;97843.28;5047975;28;20317;-79
2020/12/08 09:44:53;;;;;;;;;;;;;;;2.39;96.16;97843.25;5040992;28;19917;-78
2020/12/08 09:47:18;;;;;;;;;;;;;;;2.27;96.37;97841.75;5045504;28;19917;-78
2020/12/08 09:49:44;;;;;;;;;;;;;;;2.13;96.77;97845.41;5045034;28;19917;-78
2020/12/08 09:52:09;;;;;;;;;;;;;;;2.20;96.70;97846.97;5046151;28;19939;-80
2020/12/08 09:54:34;;;;;;;;;;;;;;;2.00;97.05;97852.38;5047918;28;19913;-81
2020/12/08 09:57:00;;;;;;;;;;;;;;;2.19;96.47;97851.22;5043962;28;19963;-79
2020/12/08 09:59:25;;;;;;;;;;;;;;;2.15;96.81;97853.84;5044350;28;19947;-78
2020/12/08 10:01:50;;;;;;;;;;;;;;;2.19;95.99;97855.44;5045655;28;19913;-78
2020/12/08 10:04:16;;;;;;;;;;;;;;;2.22;96.40;97847.78;5045695;28;19913;-78
2020/12/08 10:06:41;;;;;;;;;;;;;;;2.28;95.73;97857.84;5044233;28;20063;-79
2020/12/08 10:09:07;;;;;;;;;;;;;;;2.26;94.82;97855.34;5047734;28;19921;-79
2020/12/08 10:11:32;;;;;;;;;;;;;;;2.17;94.99;97858.03;5047044;28;19916;-78
2020/12/08 10:13:57;;;;;;;;;;;;;;;2.41;95.01;97859.31;5028115;28;20008;-78
2020/12/08 10:16:23;;;;;;;;;;;;;;;2.44;94.95;97859.25;5044892;28;19923;-79
2020/12/08 10:18:49;;;;;;;;;;;;;;;2.48;94.68;97860.84;5047200;28;19931;-79
2020/12/08 10:21:18;;;;;;;;;;;;;;;2.30;95.34;97856.09;5044940;28;19948;-79
2020/12/08 10:23:44;;;;;;;;;;;;;;;2.41;94.94;97849.13;5043483;28;19913;-79
2020/12/08 10:26:10;;;;;;;;;;;;;;;2.38;95.46;97859.38;5044078;28;19913;-79
2020/12/08 10:28:35;;;;;;;;;;;;;;;2.34;95.36;97852.66;5045218;28;20047;-79
2020/12/08 10:31:00;;;;;;;;;;;;;;;2.50;94.59;97859.13;5042390;28;20110;-79
2020/12/08 10:33:27;;;;;;;;;;;;;;;2.60;94.25;97858.97;5043108;28;19924;-79
2020/12/08 10:35:52;;;;;;;;;;;;;;;2.43;94.44;97865.19;5041647;28;21241;-79
2020/12/08 10:38:18;;;;;;;;;;;;;;;2.58;94.11;97851.38;5024181;28;19917;-79
2020/12/08 10:40:43;;;;;;;;;;;;;;;2.69;94.00;97852.03;5046466;28;19966;-78
2020/12/08 10:43:08;;;;;;;;;;;;;;;2.56;94.08;97857.38;5043020;28;19967;-79
2020/12/08 10:45:34;;;;;;;;;;;;;;;2.51;93.73;97855.75;5044477;28;20354;-78
2020/12/08 10:47:59;;;;;;;;;;;;;;;2.59;93.77;97859.84;5043061;28;19913;-79
2020/12/08 10:50:24;;;;;;;;;;;;;;;2.64;93.87;97858.06;5039827;28;20019;-78
2020/12/08 10:52:50;;;;;;;;;;;;;;;2.66;93.44;97853.78;5045507;28;19923;-79
2020/12/08 10:55:17;;;;;;;;;;;;;;;2.87;93.72;97858.47;5045750;28;20003;-79
2020/12/08 10:57:42;;;;;;;;;;;;;;;2.99;93.89;97843.81;5044674;28;20302;-78
2020/12/08 11:00:08;;;;;;;;;;;;;;;3.03;93.81;97850.50;5041992;28;19922;-79
2020/12/08 11:02:33;;;;;;;;;;;;;;;3.09;94.63;97848.69;5041315;28;19991;-78
2020/12/08 11:04:58;;;;;;;;;;;;;;;3.10;94.54;97846.97;5045342;28;19932;-79
2020/12/08 11:07:23;;;;;;;;;;;;;;;3.32;93.89;97844.81;5039550;28;20338;-78
2020/12/08 11:09:49;;;;;;;;;;;;;;;3.69;93.70;97841.47;5047554;28;19923;-78
2020/12/08 11:12:14;;;;;;;;;;;;;;;3.06;95.21;97843.66;5044440;28;19943;-78
2020/12/08 11:14:40;;;;;;;;;;;;;;;3.32;95.80;97839.72;5042871;28;19916;-78
2020/12/08 11:17:05;;;;;;;;;;;;;;;3.47;94.47;97849.59;5038801;28;19956;-79
2020/12/08 11:19:31;;;;;;;;;;;;;;;3.53;95.33;97838.41;5040885;28;19955;-79
2020/12/08 11:22:00;;;;;;;;;;;;;;;3.51;95.08;97840.16;5030554;28;19939;-78
2020/12/08 11:24:26;;;;;;;;;;;;;;;3.17;94.40;97830.75;5042254;28;19940;-78
2020/12/08 11:26:51;;;;;;;;;;;;;;;3.28;94.54;97838.94;5036044;28;19917;-78
2020/12/08 11:29:16;;;;;;;;;;;;;;;3.10;93.98;97835.13;5033476;28;20298;-78
2020/12/08 11:31:42;;;;;;;;;;;;;;;3.15;94.32;97829.94;5038212;28;19921;-78
2020/12/08 11:34:07;;;;;;;;;;;;;;;3.40;94.82;97827.69;5041254;28;19920;-78
2020/12/08 11:36:33;;;;;;;;;;;;;;;3.24;94.45;97836.50;5040912;28;19920;-78
2020/12/08 11:38:58;;;;;;;;;;;;;;;3.24;94.12;97832.28;5042812;28;19917;-78
2020/12/08 11:41:23;;;;;;;;;;;;;;;3.13;93.24;97831.66;5042660;28;19916;-78
2020/12/08 11:43:49;;;;;;;;;;;;;;;3.32;94.86;97830.38;5039771;28;19913;-78
2020/12/08 11:46:14;;;;;;;;;;;;;;;3.41;95.31;97838.69;5039239;28;19913;-78
2020/12/08 11:48:40;;;;;;;;;;;;;;;3.49;95.68;97831.72;5036192;28;19920;-78
2020/12/08 11:51:05;;;;;;;;;;;;;;;3.16;96.85;97830.75;5037839;28;19913;-77
2020/12/08 11:53:31;;;;;;;;;;;;;;;3.29;97.61;97825.38;5045430;28;20377;-77
2020/12/08 11:55:56;;;;;;;;;;;;;;;3.25;97.91;97831.38;5042467;28;19923;-78
2020/12/08 11:58:22;;;;;;;;;;;;;;;3.25;97.96;97818.66;5039307;28;20007;-77
2020/12/08 12:00:47;;;;;;;;;;;;;;;3.70;96.98;97820.22;5040018;28;19932;-77
2020/12/08 12:03:12;;;;;;;;;;;;;;;3.54;95.80;97829.94;5038583;28;19917;-78
2020/12/08 12:05:37;;;;;;;;;;;;;;;3.52;95.66;97829.13;5037714;28;19955;-78
2020/12/08 12:08:03;;;;;;;;;;;;;;;3.38;95.93;97829.44;5040942;28;20393;-78
2020/12/08 12:10:29;;;;;;;;;;;;;;;3.27;95.73;97822.03;5041649;28;20007;-78
2020/12/08 12:12:54;;;;;;;;;;;;;;;3.22;96.23;97812.84;5039452;28;19920;-78
2020/12/08 12:15:19;;;;;;;;;;;;;;;3.32;95.39;97815.13;5044082;28;19913;-78
2020/12/08 12:17:44;;;;;;;;;;;;;;;3.28;94.93;97810.97;5038570;28;20394;-78
2020/12/08 12:20:10;;;;;;;;;;;;;;;3.37;93.85;97806.56;5043445;28;19963;-78
2020/12/08 12:22:35;;;;;;;;;;;;;;;3.19;94.96;97803.53;5042554;28;20279;-78
2020/12/08 12:25:00;;;;;;;;;;;;;;;3.65;95.55;97807.59;5034602;28;20016;-78
2020/12/08 12:27:26;;;;;;;;;;;;;;;3.61;95.96;97815.34;5035651;28;19917;-78
2020/12/08 12:29:51;;;;;;;;;;;;;;;3.68;95.19;97817.72;5041594;28;19921;-78
2020/12/08 12:32:17;;;;;;;;;;;;;;;3.55;95.67;97816.31;5039552;28;20138;-78
2020/12/08 12:34:42;;;;;;;;;;;;;;;3.42;94.88;97810.69;5041394;28;19921;-78
2020/12/08 12:37:07;;;;;;;;;;;;;;;3.50;95.33;97807.97;5037866;28;19917;-78
2020/12/08 12:39:33;;;;;;;;;;;;;;;3.12;95.77;97809.63;5037376;28;19913;-78
2020/12/08 12:41:58;;;;;;;;;;;;;;;3.40;95.97;97809.88;5036427;28;20382;-78
2020/12/08 12:44:23;;;;;;;;;;;;;;;3.49;95.23;97809.66;5038742;28;19932;-78